sensor_id;sensor_type;location;lat;lon;timestamp;P1;durP1;ratioP1;P2;durP2;ratioP2
63378;SDS011;49509;54.996;73.270;2022-10-22T00:00:27;13.50;;;11.00;;
63378;SDS011;49509;54.996;73.270;2022-10-22T00:02:53;12.25;;;12.25;;
63378;SDS011;49509;54.996;73.270;2022-10-22T00:05:19;10.75;;;10.50;;
63378;SDS011;49509;54.996;73.270;2022-10-22T00:07:46;9.00;;;9.00;;
63378;SDS011;49509;54.996;73.270;2022-10-22T00:10:20;16.25;;;13.25;;
63378;SDS011;49509;54.996;73.270;2022-10-22T00:12:46;11.00;;;10.25;;
63378;SDS011;49509;54.996;73.270;2022-10-22T00:15:17;14.00;;;12.75;;
63378;SDS011;49509;54.996;73.270;2022-10-22T00:17:45;13.00;;;11.75;;
63378;SDS011;49509;54.996;73.270;2022-10-22T00:20:14;10.75;;;9.50;;
63378;SDS011;49509;54.996;73.270;2022-10-22T00:22:41;9.75;;;9.00;;
63378;SDS011;49509;54.996;73.270;2022-10-22T00:25:07;17.50;;;14.00;;
63378;SDS011;49509;54.996;73.270;2022-10-22T00:27:34;14.50;;;14.25;;
63378;SDS011;49509;54.996;73.270;2022-10-22T00:30:08;17.50;;;16.25;;
63378;SDS011;49509;54.996;73.270;2022-10-22T00:32:34;38.75;;;34.50;;
63378;SDS011;49509;54.996;73.270;2022-10-22T00:35:00;16.75;;;13.00;;
63378;SDS011;49509;54.996;73.270;2022-10-22T00:37:27;18.25;;;14.75;;
63378;SDS011;49509;54.996;73.270;2022-10-22T00:39:55;12.25;;;12.25;;
63378;SDS011;49509;54.996;73.270;2022-10-22T00:42:23;9.75;;;8.50;;
63378;SDS011;49509;54.996;73.270;2022-10-22T00:47:35;13.50;;;12.75;;
63378;SDS011;49509;54.996;73.270;2022-10-22T00:50:13;15.75;;;11.50;;
63378;SDS011;49509;54.996;73.270;2022-10-22T00:52:41;12.50;;;11.75;;
63378;SDS011;49509;54.996;73.270;2022-10-22T00:55:07;14.00;;;11.75;;
63378;SDS011;49509;54.996;73.270;2022-10-22T00:57:34;12.50;;;12.50;;
63378;SDS011;49509;54.996;73.270;2022-10-22T01:00:01;10.75;;;10.50;;
63378;SDS011;49509;54.996;73.270;2022-10-22T01:02:27;15.25;;;12.25;;
63378;SDS011;49509;54.996;73.270;2022-10-22T01:04:59;16.75;;;13.25;;
63378;SDS011;49509;54.996;73.270;2022-10-22T01:07:30;12.50;;;10.00;;
63378;SDS011;49509;54.996;73.270;2022-10-22T01:10:13;12.00;;;9.00;;
63378;SDS011;49509;54.996;73.270;2022-10-22T01:25:31;12.25;;;11.75;;
63378;SDS011;49509;54.996;73.270;2022-10-22T01:28:21;12.25;;;10.25;;
63378;SDS011;49509;54.996;73.270;2022-10-22T01:30:51;18.00;;;18.00;;
63378;SDS011;49509;54.996;73.270;2022-10-22T01:33:20;12.75;;;11.75;;
63378;SDS011;49509;54.996;73.270;2022-10-22T01:35:58;12.00;;;11.00;;
63378;SDS011;49509;54.996;73.270;2022-10-22T01:38:25;17.25;;;14.50;;
63378;SDS011;49509;54.996;73.270;2022-10-22T01:40:51;14.75;;;13.50;;
63378;SDS011;49509;54.996;73.270;2022-10-22T01:43:17;14.25;;;14.25;;
63378;SDS011;49509;54.996;73.270;2022-10-22T01:45:47;10.00;;;8.50;;
63378;SDS011;49509;54.996;73.270;2022-10-22T01:48:21;29.25;;;26.25;;
63378;SDS011;49509;54.996;73.270;2022-10-22T01:53:24;13.50;;;13.00;;
63378;SDS011;49509;54.996;73.270;2022-10-22T01:58:41;12.75;;;12.25;;
63378;SDS011;49509;54.996;73.270;2022-10-22T02:01:13;14.50;;;13.25;;
63378;SDS011;49509;54.996;73.270;2022-10-22T02:03:43;12.50;;;8.50;;
63378;SDS011;49509;54.996;73.270;2022-10-22T02:06:13;14.75;;;14.50;;
63378;SDS011;49509;54.996;73.270;2022-10-22T02:08:41;13.25;;;11.00;;
63378;SDS011;49509;54.996;73.270;2022-10-22T02:11:08;15.50;;;15.00;;
63378;SDS011;49509;54.996;73.270;2022-10-22T02:13:38;12.75;;;12.75;;
63378;SDS011;49509;54.996;73.270;2022-10-22T02:16:07;14.00;;;13.25;;
63378;SDS011;49509;54.996;73.270;2022-10-22T02:18:34;16.75;;;13.75;;
63378;SDS011;49509;54.996;73.270;2022-10-22T02:21:03;13.50;;;11.75;;
63378;SDS011;49509;54.996;73.270;2022-10-22T02:23:30;14.00;;;14.00;;
63378;SDS011;49509;54.996;73.270;2022-10-22T02:25:59;11.50;;;11.50;;
63378;SDS011;49509;54.996;73.270;2022-10-22T02:28:45;12.00;;;11.00;;
63378;SDS011;49509;54.996;73.270;2022-10-22T02:31:38;10.75;;;10.50;;
63378;SDS011;49509;54.996;73.270;2022-10-22T02:34:04;10.75;;;10.75;;
63378;SDS011;49509;54.996;73.270;2022-10-22T02:36:34;11.00;;;11.00;;
63378;SDS011;49509;54.996;73.270;2022-10-22T02:39:00;12.25;;;11.25;;
63378;SDS011;49509;54.996;73.270;2022-10-22T02:41:28;11.50;;;11.50;;
63378;SDS011;49509;54.996;73.270;2022-10-22T02:44:00;10.75;;;9.50;;
63378;SDS011;49509;54.996;73.270;2022-10-22T02:46:27;16.25;;;16.25;;
63378;SDS011;49509;54.996;73.270;2022-10-22T02:48:55;13.50;;;13.00;;
63378;SDS011;49509;54.996;73.270;2022-10-22T02:51:22;12.75;;;11.75;;
63378;SDS011;49509;54.996;73.270;2022-10-22T02:53:48;14.00;;;12.50;;
63378;SDS011;49509;54.996;73.270;2022-10-22T02:56:14;13.50;;;11.25;;
63378;SDS011;49509;54.996;73.270;2022-10-22T02:58:41;13.25;;;11.00;;
63378;SDS011;49509;54.996;73.270;2022-10-22T03:01:07;15.00;;;12.25;;
63378;SDS011;49509;54.996;73.270;2022-10-22T03:03:36;14.25;;;14.25;;
63378;SDS011;49509;54.996;73.270;2022-10-22T03:06:05;16.50;;;12.25;;
63378;SDS011;49509;54.996;73.270;2022-10-22T03:08:32;18.25;;;12.25;;
63378;SDS011;49509;54.996;73.270;2022-10-22T03:10:58;14.00;;;11.75;;
63378;SDS011;49509;54.996;73.270;2022-10-22T03:13:29;10.00;;;10.00;;
63378;SDS011;49509;54.996;73.270;2022-10-22T03:15:55;17.25;;;11.00;;
63378;SDS011;49509;54.996;73.270;2022-10-22T03:18:22;11.50;;;10.00;;
63378;SDS011;49509;54.996;73.270;2022-10-22T03:21:09;15.50;;;13.75;;
63378;SDS011;49509;54.996;73.270;2022-10-22T03:23:37;11.75;;;10.50;;
63378;SDS011;49509;54.996;73.270;2022-10-22T03:26:04;15.75;;;14.50;;
63378;SDS011;49509;54.996;73.270;2022-10-22T03:28:32;11.25;;;11.25;;
63378;SDS011;49509;54.996;73.270;2022-10-22T03:30:59;12.50;;;11.00;;
63378;SDS011;49509;54.996;73.270;2022-10-22T03:33:25;12.75;;;11.00;;
63378;SDS011;49509;54.996;73.270;2022-10-22T03:35:52;13.75;;;10.00;;
63378;SDS011;49509;54.996;73.270;2022-10-22T03:38:18;15.50;;;12.25;;
63378;SDS011;49509;54.996;73.270;2022-10-22T03:40:44;19.25;;;14.75;;
63378;SDS011;49509;54.996;73.270;2022-10-22T03:43:11;11.50;;;11.50;;
63378;SDS011;49509;54.996;73.270;2022-10-22T03:45:38;13.25;;;12.25;;
63378;SDS011;49509;54.996;73.270;2022-10-22T03:48:35;12.50;;;12.50;;
63378;SDS011;49509;54.996;73.270;2022-10-22T03:51:01;15.75;;;13.25;;
63378;SDS011;49509;54.996;73.270;2022-10-22T03:53:27;9.50;;;9.50;;
63378;SDS011;49509;54.996;73.270;2022-10-22T03:55:54;13.00;;;13.00;;
63378;SDS011;49509;54.996;73.270;2022-10-22T03:58:25;22.00;;;17.00;;
63378;SDS011;49509;54.996;73.270;2022-10-22T04:00:51;16.25;;;15.25;;
63378;SDS011;49509;54.996;73.270;2022-10-22T04:03:18;10.50;;;10.50;;
63378;SDS011;49509;54.996;73.270;2022-10-22T04:05:44;10.75;;;10.75;;
63378;SDS011;49509;54.996;73.270;2022-10-22T04:08:11;11.75;;;11.50;;
63378;SDS011;49509;54.996;73.270;2022-10-22T04:10:38;14.75;;;12.00;;
63378;SDS011;49509;54.996;73.270;2022-10-22T04:13:10;13.25;;;11.50;;
63378;SDS011;49509;54.996;73.270;2022-10-22T04:15:39;10.75;;;10.75;;
63378;SDS011;49509;54.996;73.270;2022-10-22T04:18:08;11.25;;;10.50;;
63378;SDS011;49509;54.996;73.270;2022-10-22T04:20:35;18.00;;;17.75;;
63378;SDS011;49509;54.996;73.270;2022-10-22T04:23:12;16.25;;;16.25;;
63378;SDS011;49509;54.996;73.270;2022-10-22T04:25:38;15.25;;;12.75;;
63378;SDS011;49509;54.996;73.270;2022-10-22T04:28:05;14.00;;;13.00;;
63378;SDS011;49509;54.996;73.270;2022-10-22T04:30:32;21.50;;;17.75;;
63378;SDS011;49509;54.996;73.270;2022-10-22T04:32:59;19.00;;;16.75;;
63378;SDS011;49509;54.996;73.270;2022-10-22T04:35:26;13.75;;;11.00;;
63378;SDS011;49509;54.996;73.270;2022-10-22T04:38:02;14.50;;;14.25;;
63378;SDS011;49509;54.996;73.270;2022-10-22T04:40:28;15.50;;;12.50;;
63378;SDS011;49509;54.996;73.270;2022-10-22T04:42:58;12.00;;;11.75;;
63378;SDS011;49509;54.996;73.270;2022-10-22T04:45:24;12.00;;;11.00;;
63378;SDS011;49509;54.996;73.270;2022-10-22T04:47:50;21.75;;;19.50;;
63378;SDS011;49509;54.996;73.270;2022-10-22T04:50:21;16.75;;;15.50;;
63378;SDS011;49509;54.996;73.270;2022-10-22T04:52:52;19.25;;;18.50;;
63378;SDS011;49509;54.996;73.270;2022-10-22T04:55:19;17.00;;;16.00;;
63378;SDS011;49509;54.996;73.270;2022-10-22T04:57:45;17.75;;;15.25;;
63378;SDS011;49509;54.996;73.270;2022-10-22T05:00:11;17.50;;;15.75;;
63378;SDS011;49509;54.996;73.270;2022-10-22T05:02:38;20.00;;;16.50;;
63378;SDS011;49509;54.996;73.270;2022-10-22T05:05:04;17.00;;;15.00;;
63378;SDS011;49509;54.996;73.270;2022-10-22T05:07:30;18.00;;;15.75;;
63378;SDS011;49509;54.996;73.270;2022-10-22T05:09:58;22.25;;;17.50;;
63378;SDS011;49509;54.996;73.270;2022-10-22T05:12:27;12.25;;;11.00;;
63378;SDS011;49509;54.996;73.270;2022-10-22T05:14:54;17.25;;;15.75;;
63378;SDS011;49509;54.996;73.270;2022-10-22T05:17:23;11.50;;;10.00;;
63378;SDS011;49509;54.996;73.270;2022-10-22T05:19:49;12.25;;;12.25;;
63378;SDS011;49509;54.996;73.270;2022-10-22T05:22:15;14.00;;;12.75;;
63378;SDS011;49509;54.996;73.270;2022-10-22T05:24:42;12.75;;;12.25;;
63378;SDS011;49509;54.996;73.270;2022-10-22T05:27:13;22.50;;;16.50;;
63378;SDS011;49509;54.996;73.270;2022-10-22T05:29:39;14.50;;;14.00;;
63378;SDS011;49509;54.996;73.270;2022-10-22T05:32:06;15.00;;;13.25;;
63378;SDS011;49509;54.996;73.270;2022-10-22T05:34:32;19.00;;;17.25;;
63378;SDS011;49509;54.996;73.270;2022-10-22T05:37:00;18.25;;;16.25;;
63378;SDS011;49509;54.996;73.270;2022-10-22T05:39:27;13.50;;;13.50;;
63378;SDS011;49509;54.996;73.270;2022-10-22T05:41:53;10.50;;;10.50;;
63378;SDS011;49509;54.996;73.270;2022-10-22T05:44:19;14.50;;;14.25;;
63378;SDS011;49509;54.996;73.270;2022-10-22T05:46:46;13.75;;;13.00;;
63378;SDS011;49509;54.996;73.270;2022-10-22T05:49:13;19.00;;;15.25;;
63378;SDS011;49509;54.996;73.270;2022-10-22T05:51:40;15.00;;;13.50;;
63378;SDS011;49509;54.996;73.270;2022-10-22T05:54:06;10.50;;;8.00;;
63378;SDS011;49509;54.996;73.270;2022-10-22T05:56:34;9.25;;;9.25;;
63378;SDS011;49509;54.996;73.270;2022-10-22T05:59:00;20.75;;;16.75;;
63378;SDS011;49509;54.996;73.270;2022-10-22T06:01:27;19.25;;;19.25;;
63378;SDS011;49509;54.996;73.270;2022-10-22T06:03:54;17.75;;;15.50;;
63378;SDS011;49509;54.996;73.270;2022-10-22T06:06:41;20.25;;;18.75;;
63378;SDS011;49509;54.996;73.270;2022-10-22T06:11:41;18.75;;;17.50;;
63378;SDS011;49509;54.996;73.270;2022-10-22T06:14:08;23.25;;;17.75;;
63378;SDS011;49509;54.996;73.270;2022-10-22T06:16:35;18.50;;;17.75;;
63378;SDS011;49509;54.996;73.270;2022-10-22T06:19:01;17.00;;;16.25;;
63378;SDS011;49509;54.996;73.270;2022-10-22T06:21:28;17.50;;;17.25;;
63378;SDS011;49509;54.996;73.270;2022-10-22T06:23:55;21.00;;;19.25;;
63378;SDS011;49509;54.996;73.270;2022-10-22T06:26:22;16.25;;;16.00;;
63378;SDS011;49509;54.996;73.270;2022-10-22T06:28:49;15.50;;;14.75;;
63378;SDS011;49509;54.996;73.270;2022-10-22T06:31:16;20.75;;;17.50;;
63378;SDS011;49509;54.996;73.270;2022-10-22T06:33:48;18.50;;;15.75;;
63378;SDS011;49509;54.996;73.270;2022-10-22T06:36:15;12.25;;;12.25;;
63378;SDS011;49509;54.996;73.270;2022-10-22T06:38:42;15.50;;;14.25;;
63378;SDS011;49509;54.996;73.270;2022-10-22T06:41:10;14.50;;;12.50;;
63378;SDS011;49509;54.996;73.270;2022-10-22T06:43:37;19.25;;;17.00;;
63378;SDS011;49509;54.996;73.270;2022-10-22T06:46:05;19.50;;;18.75;;
63378;SDS011;49509;54.996;73.270;2022-10-22T06:48:32;13.50;;;13.50;;
63378;SDS011;49509;54.996;73.270;2022-10-22T06:51:02;13.00;;;11.50;;
63378;SDS011;49509;54.996;73.270;2022-10-22T06:53:29;17.00;;;16.00;;
63378;SDS011;49509;54.996;73.270;2022-10-22T06:55:56;14.50;;;12.00;;
63378;SDS011;49509;54.996;73.270;2022-10-22T06:58:22;21.00;;;20.00;;
63378;SDS011;49509;54.996;73.270;2022-10-22T07:00:58;23.00;;;22.75;;
63378;SDS011;49509;54.996;73.270;2022-10-22T07:03:27;14.50;;;13.00;;
63378;SDS011;49509;54.996;73.270;2022-10-22T07:06:04;16.00;;;14.25;;
63378;SDS011;49509;54.996;73.270;2022-10-22T07:08:31;12.25;;;11.00;;
63378;SDS011;49509;54.996;73.270;2022-10-22T07:11:04;19.50;;;14.75;;
63378;SDS011;49509;54.996;73.270;2022-10-22T07:13:33;13.75;;;13.75;;
63378;SDS011;49509;54.996;73.270;2022-10-22T07:16:09;11.00;;;11.00;;
63378;SDS011;49509;54.996;73.270;2022-10-22T07:18:36;13.75;;;12.75;;
63378;SDS011;49509;54.996;73.270;2022-10-22T07:21:03;10.00;;;8.50;;
63378;SDS011;49509;54.996;73.270;2022-10-22T07:23:30;12.25;;;11.00;;
63378;SDS011;49509;54.996;73.270;2022-10-22T07:25:57;12.75;;;12.75;;
63378;SDS011;49509;54.996;73.270;2022-10-22T07:28:24;12.00;;;11.00;;
63378;SDS011;49509;54.996;73.270;2022-10-22T07:30:50;13.25;;;12.75;;
63378;SDS011;49509;54.996;73.270;2022-10-22T07:33:16;13.00;;;12.25;;
63378;SDS011;49509;54.996;73.270;2022-10-22T07:35:43;14.75;;;14.75;;
63378;SDS011;49509;54.996;73.270;2022-10-22T07:38:13;13.75;;;13.75;;
63378;SDS011;49509;54.996;73.270;2022-10-22T07:40:39;12.00;;;10.00;;
63378;SDS011;49509;54.996;73.270;2022-10-22T07:43:06;11.50;;;11.50;;
63378;SDS011;49509;54.996;73.270;2022-10-22T07:45:32;14.25;;;12.25;;
63378;SDS011;49509;54.996;73.270;2022-10-22T07:47:58;10.25;;;10.00;;
63378;SDS011;49509;54.996;73.270;2022-10-22T07:50:25;12.75;;;12.25;;
63378;SDS011;49509;54.996;73.270;2022-10-22T07:52:52;12.00;;;9.25;;
63378;SDS011;49509;54.996;73.270;2022-10-22T07:55:18;11.00;;;11.00;;
63378;SDS011;49509;54.996;73.270;2022-10-22T07:57:45;7.25;;;6.50;;
63378;SDS011;49509;54.996;73.270;2022-10-22T08:00:11;12.00;;;12.00;;
63378;SDS011;49509;54.996;73.270;2022-10-22T08:02:38;7.25;;;6.50;;
63378;SDS011;49509;54.996;73.270;2022-10-22T08:05:04;9.75;;;9.75;;
63378;SDS011;49509;54.996;73.270;2022-10-22T08:07:30;8.25;;;8.25;;
63378;SDS011;49509;54.996;73.270;2022-10-22T08:09:57;11.00;;;10.00;;
63378;SDS011;49509;54.996;73.270;2022-10-22T08:12:23;11.75;;;11.25;;
63378;SDS011;49509;54.996;73.270;2022-10-22T08:14:50;12.25;;;10.75;;
63378;SDS011;49509;54.996;73.270;2022-10-22T08:17:16;10.75;;;10.75;;
63378;SDS011;49509;54.996;73.270;2022-10-22T08:19:52;9.75;;;8.00;;
63378;SDS011;49509;54.996;73.270;2022-10-22T08:22:19;10.25;;;8.50;;
63378;SDS011;49509;54.996;73.270;2022-10-22T08:24:45;7.75;;;7.75;;
63378;SDS011;49509;54.996;73.270;2022-10-22T08:27:11;12.00;;;9.50;;
63378;SDS011;49509;54.996;73.270;2022-10-22T08:29:38;11.75;;;11.75;;
63378;SDS011;49509;54.996;73.270;2022-10-22T08:32:04;13.00;;;10.00;;
63378;SDS011;49509;54.996;73.270;2022-10-22T08:34:31;8.00;;;6.75;;
63378;SDS011;49509;54.996;73.270;2022-10-22T08:36:57;7.00;;;7.00;;
63378;SDS011;49509;54.996;73.270;2022-10-22T08:39:28;12.00;;;9.50;;
63378;SDS011;49509;54.996;73.270;2022-10-22T08:47:14;10.00;;;9.50;;
63378;SDS011;49509;54.996;73.270;2022-10-22T08:49:54;5.25;;;5.25;;
63378;SDS011;49509;54.996;73.270;2022-10-22T08:52:22;9.00;;;8.75;;
63378;SDS011;49509;54.996;73.270;2022-10-22T08:54:50;10.00;;;9.50;;
63378;SDS011;49509;54.996;73.270;2022-10-22T08:59:55;14.75;;;10.75;;
63378;SDS011;49509;54.996;73.270;2022-10-22T09:08:03;13.50;;;11.00;;
63378;SDS011;49509;54.996;73.270;2022-10-22T09:10:31;11.50;;;11.00;;
63378;SDS011;49509;54.996;73.270;2022-10-22T09:12:58;14.50;;;11.00;;
63378;SDS011;49509;54.996;73.270;2022-10-22T09:15:31;12.50;;;11.75;;
63378;SDS011;49509;54.996;73.270;2022-10-22T09:20:27;15.00;;;14.00;;
63378;SDS011;49509;54.996;73.270;2022-10-22T09:23:02;13.75;;;13.00;;
63378;SDS011;49509;54.996;73.270;2022-10-22T09:25:31;20.00;;;16.75;;
63378;SDS011;49509;54.996;73.270;2022-10-22T09:27:59;12.25;;;12.25;;
63378;SDS011;49509;54.996;73.270;2022-10-22T09:30:35;13.00;;;11.75;;
63378;SDS011;49509;54.996;73.270;2022-10-22T09:33:06;14.25;;;13.25;;
63378;SDS011;49509;54.996;73.270;2022-10-22T09:35:47;16.25;;;16.25;;
63378;SDS011;49509;54.996;73.270;2022-10-22T09:38:17;14.00;;;13.50;;
63378;SDS011;49509;54.996;73.270;2022-10-22T09:40:45;16.75;;;13.00;;
63378;SDS011;49509;54.996;73.270;2022-10-22T09:43:13;13.50;;;13.00;;
63378;SDS011;49509;54.996;73.270;2022-10-22T09:45:42;12.75;;;10.75;;
63378;SDS011;49509;54.996;73.270;2022-10-22T09:50:46;18.50;;;17.00;;
63378;SDS011;49509;54.996;73.270;2022-10-22T09:53:24;9.25;;;9.25;;
63378;SDS011;49509;54.996;73.270;2022-10-22T09:55:52;14.00;;;14.00;;
63378;SDS011;49509;54.996;73.270;2022-10-22T09:58:19;6.75;;;6.75;;
63378;SDS011;49509;54.996;73.270;2022-10-22T10:00:50;17.25;;;12.75;;
63378;SDS011;49509;54.996;73.270;2022-10-22T10:03:20;13.75;;;13.75;;
63378;SDS011;49509;54.996;73.270;2022-10-22T10:05:48;13.50;;;12.75;;
63378;SDS011;49509;54.996;73.270;2022-10-22T10:08:16;23.00;;;18.25;;
63378;SDS011;49509;54.996;73.270;2022-10-22T10:10:50;17.25;;;17.00;;
63378;SDS011;49509;54.996;73.270;2022-10-22T10:18:42;15.00;;;14.50;;
63378;SDS011;49509;54.996;73.270;2022-10-22T10:29:21;8.50;;;7.50;;
63378;SDS011;49509;54.996;73.270;2022-10-22T10:32:05;22.00;;;17.25;;
63378;SDS011;49509;54.996;73.270;2022-10-22T10:44:57;16.75;;;16.75;;
63378;SDS011;49509;54.996;73.270;2022-10-22T10:49:54;19.00;;;17.25;;
63378;SDS011;49509;54.996;73.270;2022-10-22T10:52:33;19.25;;;17.00;;
63378;SDS011;49509;54.996;73.270;2022-10-22T10:55:50;18.00;;;17.50;;
63378;SDS011;49509;54.996;73.270;2022-10-22T11:00:35;18.00;;;18.00;;
63378;SDS011;49509;54.996;73.270;2022-10-22T11:06:02;22.25;;;17.00;;
63378;SDS011;49509;54.996;73.270;2022-10-22T11:08:30;21.00;;;16.00;;
63378;SDS011;49509;54.996;73.270;2022-10-22T11:11:04;21.50;;;17.75;;
63378;SDS011;49509;54.996;73.270;2022-10-22T11:13:38;20.75;;;20.75;;
63378;SDS011;49509;54.996;73.270;2022-10-22T11:18:41;19.75;;;19.00;;
63378;SDS011;49509;54.996;73.270;2022-10-22T11:23:43;20.75;;;20.00;;
63378;SDS011;49509;54.996;73.270;2022-10-22T11:26:12;19.75;;;15.75;;
63378;SDS011;49509;54.996;73.270;2022-10-22T11:28:41;24.00;;;23.00;;
63378;SDS011;49509;54.996;73.270;2022-10-22T11:31:19;23.50;;;19.25;;
63378;SDS011;49509;54.996;73.270;2022-10-22T11:36:18;25.00;;;23.25;;
63378;SDS011;49509;54.996;73.270;2022-10-22T11:38:46;27.40;;;23.00;;
63378;SDS011;49509;54.996;73.270;2022-10-22T11:41:15;28.20;;;26.60;;
63378;SDS011;49509;54.996;73.270;2022-10-22T11:48:44;29.40;;;23.20;;
63378;SDS011;49509;54.996;73.270;2022-10-22T11:53:56;19.20;;;15.60;;
63378;SDS011;49509;54.996;73.270;2022-10-22T11:56:24;24.75;;;17.00;;
63378;SDS011;49509;54.996;73.270;2022-10-22T11:58:52;22.00;;;18.75;;
63378;SDS011;49509;54.996;73.270;2022-10-22T12:01:23;19.00;;;19.00;;
63378;SDS011;49509;54.996;73.270;2022-10-22T12:06:23;26.50;;;21.50;;
63378;SDS011;49509;54.996;73.270;2022-10-22T12:11:25;29.25;;;24.50;;
63378;SDS011;49509;54.996;73.270;2022-10-22T12:16:34;29.20;;;26.00;;
63378;SDS011;49509;54.996;73.270;2022-10-22T12:21:39;24.20;;;20.20;;
63378;SDS011;49509;54.996;73.270;2022-10-22T12:24:11;23.40;;;20.60;;
63378;SDS011;49509;54.996;73.270;2022-10-22T12:26:43;23.60;;;19.00;;
63378;SDS011;49509;54.996;73.270;2022-10-22T12:29:17;24.80;;;22.40;;
63378;SDS011;49509;54.996;73.270;2022-10-22T12:31:45;34.00;;;29.20;;
63378;SDS011;49509;54.996;73.270;2022-10-22T12:34:12;31.40;;;27.60;;
63378;SDS011;49509;54.996;73.270;2022-10-22T12:36:39;28.00;;;22.00;;
63378;SDS011;49509;54.996;73.270;2022-10-22T12:39:10;29.20;;;26.80;;
63378;SDS011;49509;54.996;73.270;2022-10-22T12:41:37;31.20;;;24.40;;
63378;SDS011;49509;54.996;73.270;2022-10-22T12:44:11;30.20;;;27.60;;
63378;SDS011;49509;54.996;73.270;2022-10-22T12:46:38;33.40;;;30.00;;
63378;SDS011;49509;54.996;73.270;2022-10-22T12:49:24;32.40;;;27.00;;
63378;SDS011;49509;54.996;73.270;2022-10-22T12:52:02;32.20;;;26.20;;
63378;SDS011;49509;54.996;73.270;2022-10-22T12:54:30;30.20;;;27.60;;
63378;SDS011;49509;54.996;73.270;2022-10-22T12:56:58;29.20;;;27.40;;
63378;SDS011;49509;54.996;73.270;2022-10-22T12:59:29;38.80;;;34.80;;
63378;SDS011;49509;54.996;73.270;2022-10-22T13:02:10;34.40;;;30.40;;
63378;SDS011;49509;54.996;73.270;2022-10-22T13:04:40;40.40;;;31.80;;
63378;SDS011;49509;54.996;73.270;2022-10-22T13:07:15;41.40;;;33.40;;
63378;SDS011;49509;54.996;73.270;2022-10-22T13:09:46;33.40;;;31.00;;
63378;SDS011;49509;54.996;73.270;2022-10-22T13:12:12;33.20;;;32.20;;
63378;SDS011;49509;54.996;73.270;2022-10-22T13:14:44;47.20;;;37.60;;
63378;SDS011;49509;54.996;73.270;2022-10-22T13:17:15;47.00;;;39.00;;
63378;SDS011;49509;54.996;73.270;2022-10-22T13:19:43;36.40;;;34.00;;
63378;SDS011;49509;54.996;73.270;2022-10-22T13:27:52;34.00;;;32.40;;
63378;SDS011;49509;54.996;73.270;2022-10-22T13:32:50;37.20;;;33.00;;
63378;SDS011;49509;54.996;73.270;2022-10-22T13:35:17;38.60;;;30.80;;
63378;SDS011;49509;54.996;73.270;2022-10-22T13:37:44;42.20;;;33.80;;
63378;SDS011;49509;54.996;73.270;2022-10-22T13:40:12;36.80;;;29.80;;
63378;SDS011;49509;54.996;73.270;2022-10-22T13:42:38;35.80;;;33.00;;
63378;SDS011;49509;54.996;73.270;2022-10-22T13:45:05;22.20;;;18.00;;
63378;SDS011;49509;54.996;73.270;2022-10-22T13:47:32;37.00;;;30.80;;
63378;SDS011;49509;54.996;73.270;2022-10-22T13:50:02;36.80;;;26.60;;
63378;SDS011;49509;54.996;73.270;2022-10-22T13:52:33;34.60;;;27.40;;
63378;SDS011;49509;54.996;73.270;2022-10-22T13:58:10;32.00;;;31.00;;
63378;SDS011;49509;54.996;73.270;2022-10-22T14:00:53;39.40;;;35.40;;
63378;SDS011;49509;54.996;73.270;2022-10-22T14:03:24;41.20;;;32.00;;
63378;SDS011;49509;54.996;73.270;2022-10-22T14:06:01;38.60;;;32.80;;
63378;SDS011;49509;54.996;73.270;2022-10-22T14:08:31;39.80;;;36.40;;
63378;SDS011;49509;54.996;73.270;2022-10-22T14:10:58;35.80;;;30.60;;
63378;SDS011;49509;54.996;73.270;2022-10-22T14:13:24;37.20;;;31.40;;
63378;SDS011;49509;54.996;73.270;2022-10-22T14:15:51;45.20;;;40.60;;
63378;SDS011;49509;54.996;73.270;2022-10-22T14:18:22;44.60;;;37.80;;
63378;SDS011;49509;54.996;73.270;2022-10-22T14:20:59;45.40;;;40.40;;
63378;SDS011;49509;54.996;73.270;2022-10-22T14:23:30;54.60;;;44.00;;
63378;SDS011;49509;54.996;73.270;2022-10-22T14:25:57;51.00;;;42.40;;
63378;SDS011;49509;54.996;73.270;2022-10-22T14:28:29;52.40;;;42.00;;
63378;SDS011;49509;54.996;73.270;2022-10-22T14:30:56;50.20;;;41.20;;
63378;SDS011;49509;54.996;73.270;2022-10-22T14:35:49;55.20;;;42.20;;
63378;SDS011;49509;54.996;73.270;2022-10-22T14:38:16;54.20;;;46.20;;
63378;SDS011;49509;54.996;73.270;2022-10-22T14:40:42;55.40;;;45.40;;
63378;SDS011;49509;54.996;73.270;2022-10-22T14:46:03;56.40;;;42.00;;
63378;SDS011;49509;54.996;73.270;2022-10-22T14:48:30;60.40;;;45.60;;
63378;SDS011;49509;54.996;73.270;2022-10-22T14:50:56;57.60;;;44.40;;
63378;SDS011;49509;54.996;73.270;2022-10-22T14:53:23;62.60;;;48.60;;
63378;SDS011;49509;54.996;73.270;2022-10-22T14:55:49;59.80;;;47.20;;
63378;SDS011;49509;54.996;73.270;2022-10-22T14:58:17;62.40;;;47.60;;
63378;SDS011;49509;54.996;73.270;2022-10-22T15:00:43;63.00;;;45.20;;
63378;SDS011;49509;54.996;73.270;2022-10-22T15:03:15;57.80;;;48.40;;
63378;SDS011;49509;54.996;73.270;2022-10-22T15:05:44;54.40;;;46.20;;
63378;SDS011;49509;54.996;73.270;2022-10-22T15:08:11;62.40;;;45.00;;
63378;SDS011;49509;54.996;73.270;2022-10-22T15:10:39;57.00;;;47.20;;
63378;SDS011;49509;54.996;73.270;2022-10-22T15:13:16;59.60;;;48.40;;
63378;SDS011;49509;54.996;73.270;2022-10-22T15:15:47;53.40;;;43.80;;
63378;SDS011;49509;54.996;73.270;2022-10-22T15:18:14;62.20;;;49.60;;
63378;SDS011;49509;54.996;73.270;2022-10-22T15:20:40;61.80;;;47.40;;
63378;SDS011;49509;54.996;73.270;2022-10-22T15:23:18;66.60;;;51.40;;
63378;SDS011;49509;54.996;73.270;2022-10-22T15:25:49;65.80;;;48.00;;
63378;SDS011;49509;54.996;73.270;2022-10-22T15:28:26;61.20;;;47.60;;
63378;SDS011;49509;54.996;73.270;2022-10-22T15:30:53;59.60;;;47.00;;
63378;SDS011;49509;54.996;73.270;2022-10-22T15:33:20;61.20;;;47.20;;
63378;SDS011;49509;54.996;73.270;2022-10-22T15:35:46;68.00;;;50.80;;
63378;SDS011;49509;54.996;73.270;2022-10-22T15:38:17;54.60;;;44.80;;
63378;SDS011;49509;54.996;73.270;2022-10-22T15:40:48;54.60;;;45.80;;
63378;SDS011;49509;54.996;73.270;2022-10-22T15:43:24;57.80;;;44.40;;
63378;SDS011;49509;54.996;73.270;2022-10-22T15:45:54;65.80;;;49.20;;
63378;SDS011;49509;54.996;73.270;2022-10-22T15:48:33;52.80;;;45.80;;
63378;SDS011;49509;54.996;73.270;2022-10-22T15:51:09;55.40;;;45.00;;
63378;SDS011;49509;54.996;73.270;2022-10-22T15:53:36;63.60;;;48.20;;
63378;SDS011;49509;54.996;73.270;2022-10-22T15:56:12;63.80;;;44.80;;
63378;SDS011;49509;54.996;73.270;2022-10-22T15:58:39;56.60;;;45.40;;
63378;SDS011;49509;54.996;73.270;2022-10-22T16:01:06;44.60;;;40.20;;
63378;SDS011;49509;54.996;73.270;2022-10-22T16:03:39;55.40;;;45.80;;
63378;SDS011;49509;54.996;73.270;2022-10-22T16:06:15;53.80;;;44.00;;
63378;SDS011;49509;54.996;73.270;2022-10-22T16:08:41;55.00;;;44.80;;
63378;SDS011;49509;54.996;73.270;2022-10-22T16:11:08;59.00;;;48.00;;
63378;SDS011;49509;54.996;73.270;2022-10-22T16:13:35;48.60;;;35.20;;
63378;SDS011;49509;54.996;73.270;2022-10-22T16:16:05;28.00;;;25.60;;
63378;SDS011;49509;54.996;73.270;2022-10-22T16:18:33;54.40;;;43.20;;